sensor_id;sensor_type;location;lat;lon;timestamp;temperature;humidity
1686;DHT22;840;47.980;7.830;2022-12-16T00:01:28;-0.80;99.90
1686;DHT22;840;47.980;7.830;2022-12-16T00:04:11;-0.80;99.90
1686;DHT22;840;47.980;7.830;2022-12-16T00:06:39;-0.80;99.90
1686;DHT22;840;47.980;7.830;2022-12-16T00:09:33;-0.80;99.90
1686;DHT22;840;47.980;7.830;2022-12-16T00:12:02;-0.70;99.90
1686;DHT22;840;47.980;7.830;2022-12-16T00:14:36;-0.70;99.90
1686;DHT22;840;47.980;7.830;2022-12-16T00:17:04;-0.60;99.90
1686;DHT22;840;47.980;7.830;2022-12-16T00:19:47;-0.70;99.90
1686;DHT22;840;47.980;7.830;2022-12-16T00:22:22;-0.70;99.90
1686;DHT22;840;47.980;7.830;2022-12-16T00:25:10;-0.70;99.90
1686;DHT22;840;47.980;7.830;2022-12-16T00:27:53;-0.80;99.90
1686;DHT22;840;47.980;7.830;2022-12-16T00:30:21;-0.80;99.90
1686;DHT22;840;47.980;7.830;2022-12-16T00:33:08;-0.70;99.90
1686;DHT22;840;47.980;7.830;2022-12-16T00:35:38;-0.70;99.90
1686;DHT22;840;47.980;7.830;2022-12-16T00:38:25;-0.60;99.90
1686;DHT22;840;47.980;7.830;2022-12-16T00:40:56;-0.50;99.90
1686;DHT22;840;47.980;7.830;2022-12-16T00:43:31;-0.50;99.90
1686;DHT22;840;47.980;7.830;2022-12-16T00:46:06;-0.40;99.90
1686;DHT22;840;47.980;7.830;2022-12-16T00:48:50;-0.30;99.90
1686;DHT22;840;47.980;7.830;2022-12-16T00:51:20;-0.20;99.90
1686;DHT22;840;47.980;7.830;2022-12-16T00:53:49;-0.10;99.90
1686;DHT22;840;47.980;7.830;2022-12-16T00:56:22;0.00;99.90
1686;DHT22;840;47.980;7.830;2022-12-16T00:58:52;0.10;99.90
1686;DHT22;840;47.980;7.830;2022-12-16T01:01:24;0.10;99.90
1686;DHT22;840;47.980;7.830;2022-12-16T01:03:54;0.10;99.90
1686;DHT22;840;47.980;7.830;2022-12-16T01:06:31;0.20;99.90
1686;DHT22;840;47.980;7.830;2022-12-16T01:09:01;0.20;99.90
1686;DHT22;840;47.980;7.830;2022-12-16T01:11:37;0.30;99.90
1686;DHT22;840;47.980;7.830;2022-12-16T01:14:19;0.30;99.90
1686;DHT22;840;47.980;7.830;2022-12-16T01:16:55;0.30;99.90
1686;DHT22;840;47.980;7.830;2022-12-16T01:19:31;0.20;99.90
1686;DHT22;840;47.980;7.830;2022-12-16T01:22:07;0.10;99.90
1686;DHT22;840;47.980;7.830;2022-12-16T01:24:40;0.00;99.90
1686;DHT22;840;47.980;7.830;2022-12-16T01:27:14;-0.10;99.90
1686;DHT22;840;47.980;7.830;2022-12-16T01:29:42;-0.20;99.90
1686;DHT22;840;47.980;7.830;2022-12-16T01:32:37;-0.40;99.90
1686;DHT22;840;47.980;7.830;2022-12-16T01:35:20;-0.40;99.90
1686;DHT22;840;47.980;7.830;2022-12-16T01:37:58;-0.40;99.90
1686;DHT22;840;47.980;7.830;2022-12-16T01:40:28;-0.50;99.90
1686;DHT22;840;47.980;7.830;2022-12-16T01:43:17;-0.50;99.90
1686;DHT22;840;47.980;7.830;2022-12-16T01:46:07;-0.50;99.90
1686;DHT22;840;47.980;7.830;2022-12-16T01:48:47;-0.60;99.90
1686;DHT22;840;47.980;7.830;2022-12-16T01:51:25;-0.70;99.90
1686;DHT22;840;47.980;7.830;2022-12-16T01:54:06;-0.70;99.90
1686;DHT22;840;47.980;7.830;2022-12-16T01:56:40;-0.70;99.90
1686;DHT22;840;47.980;7.830;2022-12-16T01:59:28;-0.60;99.90
1686;DHT22;840;47.980;7.830;2022-12-16T02:02:08;-0.60;99.90
1686;DHT22;840;47.980;7.830;2022-12-16T02:04:43;-0.70;99.90
1686;DHT22;840;47.980;7.830;2022-12-16T02:07:25;-0.60;99.90
1686;DHT22;840;47.980;7.830;2022-12-16T02:09:58;-0.60;99.90
1686;DHT22;840;47.980;7.830;2022-12-16T02:12:51;-0.60;99.90
1686;DHT22;840;47.980;7.830;2022-12-16T02:15:35;-0.50;99.90
1686;DHT22;840;47.980;7.830;2022-12-16T02:18:26;-0.50;99.90
1686;DHT22;840;47.980;7.830;2022-12-16T02:21:22;-0.60;99.90
1686;DHT22;840;47.980;7.830;2022-12-16T02:24:40;-0.60;99.90
1686;DHT22;840;47.980;7.830;2022-12-16T02:27:48;-0.70;99.90
1686;DHT22;840;47.980;7.830;2022-12-16T02:30:32;-0.60;99.90
1686;DHT22;840;47.980;7.830;2022-12-16T02:33:18;-0.50;99.90
1686;DHT22;840;47.980;7.830;2022-12-16T02:35:54;-0.50;99.90
1686;DHT22;840;47.980;7.830;2022-12-16T02:38:46;-0.50;99.90
1686;DHT22;840;47.980;7.830;2022-12-16T02:41:31;-0.50;99.90
1686;DHT22;840;47.980;7.830;2022-12-16T02:44:17;-0.40;99.90
1686;DHT22;840;47.980;7.830;2022-12-16T02:47:04;-0.40;99.90
1686;DHT22;840;47.980;7.830;2022-12-16T02:49:54;-0.40;99.90
1686;DHT22;840;47.980;7.830;2022-12-16T02:52:45;-0.40;99.90
1686;DHT22;840;47.980;7.830;2022-12-16T02:55:13;-0.40;99.90
1686;DHT22;840;47.980;7.830;2022-12-16T02:58:05;-0.40;99.90
1686;DHT22;840;47.980;7.830;2022-12-16T03:00:42;-0.40;99.90
1686;DHT22;840;47.980;7.830;2022-12-16T03:03:37;-0.40;99.90
1686;DHT22;840;47.980;7.830;2022-12-16T03:06:13;-0.40;99.90
1686;DHT22;840;47.980;7.830;2022-12-16T03:09:00;-0.40;99.90
1686;DHT22;840;47.980;7.830;2022-12-16T03:11:46;-0.40;99.90
1686;DHT22;840;47.980;7.830;2022-12-16T03:14:24;-0.40;99.90
1686;DHT22;840;47.980;7.830;2022-12-16T03:17:11;-0.40;99.90
1686;DHT22;840;47.980;7.830;2022-12-16T03:19:51;-0.40;99.90
1686;DHT22;840;47.980;7.830;2022-12-16T03:22:31;-0.40;99.90
1686;DHT22;840;47.980;7.830;2022-12-16T03:25:06;-0.30;99.90
1686;DHT22;840;47.980;7.830;2022-12-16T03:27:49;-0.30;99.90
1686;DHT22;840;47.980;7.830;2022-12-16T03:30:26;-0.30;99.90
1686;DHT22;840;47.980;7.830;2022-12-16T03:33:04;-0.20;99.90
1686;DHT22;840;47.980;7.830;2022-12-16T03:36:01;-0.20;99.90
1686;DHT22;840;47.980;7.830;2022-12-16T03:38:38;-0.30;99.90
1686;DHT22;840;47.980;7.830;2022-12-16T03:41:09;-0.30;99.90
1686;DHT22;840;47.980;7.830;2022-12-16T03:43:46;-0.20;99.90
1686;DHT22;840;47.980;7.830;2022-12-16T03:46:16;-0.20;99.90
1686;DHT22;840;47.980;7.830;2022-12-16T03:48:48;-0.20;99.90
1686;DHT22;840;47.980;7.830;2022-12-16T03:51:50;-0.10;99.90
1686;DHT22;840;47.980;7.830;2022-12-16T03:54:34;-0.10;99.90
1686;DHT22;840;47.980;7.830;2022-12-16T03:57:18;-0.20;99.90
1686;DHT22;840;47.980;7.830;2022-12-16T04:00:01;-0.30;99.90
1686;DHT22;840;47.980;7.830;2022-12-16T04:02:36;-0.40;99.90
1686;DHT22;840;47.980;7.830;2022-12-16T04:05:25;-0.30;99.90
1686;DHT22;840;47.980;7.830;2022-12-16T04:08:02;-0.40;99.90
1686;DHT22;840;47.980;7.830;2022-12-16T04:10:37;-0.50;99.90
1686;DHT22;840;47.980;7.830;2022-12-16T04:13:26;-0.40;99.90
1686;DHT22;840;47.980;7.830;2022-12-16T04:16:20;-0.50;99.90
1686;DHT22;840;47.980;7.830;2022-12-16T04:19:21;-0.50;99.90
1686;DHT22;840;47.980;7.830;2022-12-16T04:22:20;-0.60;99.90
1686;DHT22;840;47.980;7.830;2022-12-16T04:28:17;-0.60;99.90
1686;DHT22;840;47.980;7.830;2022-12-16T04:31:04;-0.60;99.90
1686;DHT22;840;47.980;7.830;2022-12-16T04:33:35;-0.60;99.90
1686;DHT22;840;47.980;7.830;2022-12-16T04:36:21;-0.60;99.90
1686;DHT22;840;47.980;7.830;2022-12-16T04:39:19;-0.50;99.90
1686;DHT22;840;47.980;7.830;2022-12-16T04:42:17;-0.50;99.90
1686;DHT22;840;47.980;7.830;2022-12-16T04:45:10;-0.50;99.90
1686;DHT22;840;47.980;7.830;2022-12-16T04:47:55;-0.50;99.90
1686;DHT22;840;47.980;7.830;2022-12-16T04:50:41;-0.50;99.90
1686;DHT22;840;47.980;7.830;2022-12-16T04:53:41;-0.50;99.90
1686;DHT22;840;47.980;7.830;2022-12-16T04:56:32;-0.50;99.90
1686;DHT22;840;47.980;7.830;2022-12-16T04:59:20;-0.60;99.90
1686;DHT22;840;47.980;7.830;2022-12-16T05:02:14;-0.60;99.90
1686;DHT22;840;47.980;7.830;2022-12-16T05:05:00;-0.70;99.90
1686;DHT22;840;47.980;7.830;2022-12-16T05:07:46;-0.70;99.90
1686;DHT22;840;47.980;7.830;2022-12-16T05:10:46;-0.70;99.90
1686;DHT22;840;47.980;7.830;2022-12-16T05:13:37;-0.60;99.90
1686;DHT22;840;47.980;7.830;2022-12-16T05:16:29;-0.60;99.90
1686;DHT22;840;47.980;7.830;2022-12-16T05:19:22;-0.60;99.90
1686;DHT22;840;47.980;7.830;2022-12-16T05:22:13;-0.60;99.90
1686;DHT22;840;47.980;7.830;2022-12-16T05:25:00;-0.60;99.90
1686;DHT22;840;47.980;7.830;2022-12-16T05:27:50;-0.50;99.90
1686;DHT22;840;47.980;7.830;2022-12-16T05:30:35;-0.50;99.90
1686;DHT22;840;47.980;7.830;2022-12-16T05:33:25;-0.40;99.90
1686;DHT22;840;47.980;7.830;2022-12-16T05:36:11;-0.40;99.90
1686;DHT22;840;47.980;7.830;2022-12-16T05:38:57;-0.30;99.90
1686;DHT22;840;47.980;7.830;2022-12-16T05:41:41;-0.40;99.90
1686;DHT22;840;47.980;7.830;2022-12-16T05:44:26;-0.40;99.90
1686;DHT22;840;47.980;7.830;2022-12-16T05:47:11;-0.40;99.90
1686;DHT22;840;47.980;7.830;2022-12-16T05:50:21;-0.30;99.90
1686;DHT22;840;47.980;7.830;2022-12-16T05:53:21;-0.30;99.90
1686;DHT22;840;47.980;7.830;2022-12-16T05:56:09;-0.20;99.90
1686;DHT22;840;47.980;7.830;2022-12-16T05:59:00;-0.20;99.90
1686;DHT22;840;47.980;7.830;2022-12-16T06:01:53;-0.10;99.90
1686;DHT22;840;47.980;7.830;2022-12-16T06:04:43;-0.30;99.90
1686;DHT22;840;47.980;7.830;2022-12-16T06:07:31;-0.40;99.90
1686;DHT22;840;47.980;7.830;2022-12-16T06:10:19;-0.50;99.90
1686;DHT22;840;47.980;7.830;2022-12-16T06:13:16;-0.60;99.90
1686;DHT22;840;47.980;7.830;2022-12-16T06:16:01;-0.70;99.90
1686;DHT22;840;47.980;7.830;2022-12-16T06:18:50;-0.80;99.90
1686;DHT22;840;47.980;7.830;2022-12-16T06:21:42;-0.80;99.90
1686;DHT22;840;47.980;7.830;2022-12-16T06:24:26;-0.80;99.90
1686;DHT22;840;47.980;7.830;2022-12-16T06:27:27;-0.80;99.90
1686;DHT22;840;47.980;7.830;2022-12-16T06:30:21;-0.90;99.90
1686;DHT22;840;47.980;7.830;2022-12-16T06:33:06;-0.90;99.90
1686;DHT22;840;47.980;7.830;2022-12-16T06:35:50;-0.90;99.90
1686;DHT22;840;47.980;7.830;2022-12-16T06:38:37;-0.90;99.90
1686;DHT22;840;47.980;7.830;2022-12-16T06:41:21;-1.00;99.90
1686;DHT22;840;47.980;7.830;2022-12-16T06:44:15;-1.00;99.90
1686;DHT22;840;47.980;7.830;2022-12-16T06:47:00;-1.00;99.90
1686;DHT22;840;47.980;7.830;2022-12-16T06:49:47;-1.00;99.90
1686;DHT22;840;47.980;7.830;2022-12-16T06:52:44;-1.00;99.90
1686;DHT22;840;47.980;7.830;2022-12-16T06:55:29;-0.90;99.90
1686;DHT22;840;47.980;7.830;2022-12-16T06:58:18;-0.80;99.90
1686;DHT22;840;47.980;7.830;2022-12-16T07:01:09;-0.70;99.90
1686;DHT22;840;47.980;7.830;2022-12-16T07:03:54;-0.70;99.90
1686;DHT22;840;47.980;7.830;2022-12-16T07:06:40;-0.60;99.90
1686;DHT22;840;47.980;7.830;2022-12-16T07:09:28;-0.50;99.90
1686;DHT22;840;47.980;7.830;2022-12-16T07:12:15;-0.50;99.90
1686;DHT22;840;47.980;7.830;2022-12-16T07:15:00;-0.40;99.90
1686;DHT22;840;47.980;7.830;2022-12-16T07:17:49;-0.50;99.90
1686;DHT22;840;47.980;7.830;2022-12-16T07:20:34;-0.50;99.90
1686;DHT22;840;47.980;7.830;2022-12-16T07:23:19;-0.50;99.90
1686;DHT22;840;47.980;7.830;2022-12-16T07:26:09;-0.60;99.90
1686;DHT22;840;47.980;7.830;2022-12-16T07:28:53;-0.60;99.90
1686;DHT22;840;47.980;7.830;2022-12-16T07:31:41;-0.50;99.90
1686;DHT22;840;47.980;7.830;2022-12-16T07:34:31;-0.50;99.90
1686;DHT22;840;47.980;7.830;2022-12-16T07:37:37;-0.50;99.90
1686;DHT22;840;47.980;7.830;2022-12-16T07:40:22;-0.50;99.90
1686;DHT22;840;47.980;7.830;2022-12-16T07:43:10;-0.40;99.90
1686;DHT22;840;47.980;7.830;2022-12-16T07:46:10;-0.30;99.90
1686;DHT22;840;47.980;7.830;2022-12-16T07:48:59;-0.20;99.90
1686;DHT22;840;47.980;7.830;2022-12-16T07:51:49;-0.10;99.90
1686;DHT22;840;47.980;7.830;2022-12-16T07:54:41;-0.10;99.90
1686;DHT22;840;47.980;7.830;2022-12-16T07:57:27;-0.10;99.90
1686;DHT22;840;47.980;7.830;2022-12-16T08:00:20;-0.10;99.90
1686;DHT22;840;47.980;7.830;2022-12-16T08:03:08;-0.10;99.90
1686;DHT22;840;47.980;7.830;2022-12-16T08:05:53;-0.10;99.90
1686;DHT22;840;47.980;7.830;2022-12-16T08:08:40;-0.20;99.90
1686;DHT22;840;47.980;7.830;2022-12-16T08:11:28;-0.30;99.90
1686;DHT22;840;47.980;7.830;2022-12-16T08:14:15;-0.30;99.90
1686;DHT22;840;47.980;7.830;2022-12-16T08:17:01;-0.20;99.90
1686;DHT22;840;47.980;7.830;2022-12-16T08:19:45;-0.20;99.90
1686;DHT22;840;47.980;7.830;2022-12-16T08:22:32;-0.10;99.90
1686;DHT22;840;47.980;7.830;2022-12-16T08:25:22;0.00;99.90
1686;DHT22;840;47.980;7.830;2022-12-16T08:28:10;-0.10;99.90
1686;DHT22;840;47.980;7.830;2022-12-16T08:30:55;-0.10;99.90
1686;DHT22;840;47.980;7.830;2022-12-16T08:33:47;-0.30;99.90
1686;DHT22;840;47.980;7.830;2022-12-16T08:36:37;-0.40;99.90
1686;DHT22;840;47.980;7.830;2022-12-16T08:39:24;-0.40;99.90
1686;DHT22;840;47.980;7.830;2022-12-16T08:42:16;-0.40;99.90
1686;DHT22;840;47.980;7.830;2022-12-16T08:45:03;-0.30;99.90
1686;DHT22;840;47.980;7.830;2022-12-16T08:47:51;-0.30;99.90
1686;DHT22;840;47.980;7.830;2022-12-16T08:50:38;-0.30;99.90
1686;DHT22;840;47.980;7.830;2022-12-16T08:53:29;-0.30;99.90
1686;DHT22;840;47.980;7.830;2022-12-16T08:56:16;-0.30;99.90
1686;DHT22;840;47.980;7.830;2022-12-16T08:59:13;-0.40;99.90
1686;DHT22;840;47.980;7.830;2022-12-16T09:01:57;-0.50;99.90
1686;DHT22;840;47.980;7.830;2022-12-16T09:04:46;-0.50;99.90
1686;DHT22;840;47.980;7.830;2022-12-16T09:07:30;-0.40;99.90
1686;DHT22;840;47.980;7.830;2022-12-16T09:10:15;-0.40;99.90
1686;DHT22;840;47.980;7.830;2022-12-16T09:13:11;-0.30;99.90
1686;DHT22;840;47.980;7.830;2022-12-16T09:16:00;-0.30;99.90
1686;DHT22;840;47.980;7.830;2022-12-16T09:18:45;-0.30;99.90
1686;DHT22;840;47.980;7.830;2022-12-16T09:21:34;-0.30;99.90
1686;DHT22;840;47.980;7.830;2022-12-16T09:24:23;-0.40;99.90
1686;DHT22;840;47.980;7.830;2022-12-16T09:27:09;-0.30;99.90
1686;DHT22;840;47.980;7.830;2022-12-16T09:30:05;-0.20;99.90
1686;DHT22;840;47.980;7.830;2022-12-16T09:33:14;-0.30;99.90
1686;DHT22;840;47.980;7.830;2022-12-16T09:36:04;-0.40;99.90
1686;DHT22;840;47.980;7.830;2022-12-16T09:38:50;-0.40;99.90
1686;DHT22;840;47.980;7.830;2022-12-16T09:41:44;-0.40;99.90
1686;DHT22;840;47.980;7.830;2022-12-16T09:44:43;-0.40;99.90
1686;DHT22;840;47.980;7.830;2022-12-16T09:47:39;-0.40;99.90
1686;DHT22;840;47.980;7.830;2022-12-16T09:50:36;-0.50;99.90
1686;DHT22;840;47.980;7.830;2022-12-16T09:53:30;-0.60;99.90
1686;DHT22;840;47.980;7.830;2022-12-16T09:56:27;-0.60;99.90
1686;DHT22;840;47.980;7.830;2022-12-16T09:59:18;-0.60;99.90
1686;DHT22;840;47.980;7.830;2022-12-16T10:02:10;-0.50;99.90
1686;DHT22;840;47.980;7.830;2022-12-16T10:04:59;-0.50;99.90
1686;DHT22;840;47.980;7.830;2022-12-16T10:07:50;-0.50;99.90
1686;DHT22;840;47.980;7.830;2022-12-16T10:10:48;-0.40;99.90
1686;DHT22;840;47.980;7.830;2022-12-16T10:13:44;-0.20;99.90
1686;DHT22;840;47.980;7.830;2022-12-16T10:16:41;-0.10;99.90
1686;DHT22;840;47.980;7.830;2022-12-16T10:19:40;-0.10;99.90
1686;DHT22;840;47.980;7.830;2022-12-16T10:22:36;0.00;99.90
1686;DHT22;840;47.980;7.830;2022-12-16T10:25:34;0.10;99.90
1686;DHT22;840;47.980;7.830;2022-12-16T10:28:35;0.20;99.90
1686;DHT22;840;47.980;7.830;2022-12-16T10:31:28;0.30;99.90
1686;DHT22;840;47.980;7.830;2022-12-16T10:34:17;0.30;99.90
1686;DHT22;840;47.980;7.830;2022-12-16T10:37:02;0.40;99.90
1686;DHT22;840;47.980;7.830;2022-12-16T10:39:57;0.50;99.90
1686;DHT22;840;47.980;7.830;2022-12-16T10:42:48;0.50;99.90
1686;DHT22;840;47.980;7.830;2022-12-16T10:45:36;0.60;99.90
1686;DHT22;840;47.980;7.830;2022-12-16T10:48:26;0.50;99.90
1686;DHT22;840;47.980;7.830;2022-12-16T10:51:14;0.30;99.90
1686;DHT22;840;47.980;7.830;2022-12-16T10:54:18;0.10;99.90
1686;DHT22;840;47.980;7.830;2022-12-16T10:57:12;-0.10;99.90
1686;DHT22;840;47.980;7.830;2022-12-16T11:00:13;-0.10;99.90
1686;DHT22;840;47.980;7.830;2022-12-16T11:03:16;-0.10;99.90
1686;DHT22;840;47.980;7.830;2022-12-16T11:06:03;-0.10;99.90
1686;DHT22;840;47.980;7.830;2022-12-16T11:08:50;-0.20;99.90
1686;DHT22;840;47.980;7.830;2022-12-16T11:11:35;-0.20;99.90
1686;DHT22;840;47.980;7.830;2022-12-16T11:14:23;-0.20;99.90
1686;DHT22;840;47.980;7.830;2022-12-16T11:17:19;-0.10;99.90
1686;DHT22;840;47.980;7.830;2022-12-16T11:20:16;0.10;99.90
1686;DHT22;840;47.980;7.830;2022-12-16T11:23:22;0.20;99.90
1686;DHT22;840;47.980;7.830;2022-12-16T11:26:11;0.30;99.90
1686;DHT22;840;47.980;7.830;2022-12-16T11:29:10;0.10;99.90
1686;DHT22;840;47.980;7.830;2022-12-16T11:32:00;0.00;99.90
1686;DHT22;840;47.980;7.830;2022-12-16T11:34:49;0.00;99.90
1686;DHT22;840;47.980;7.830;2022-12-16T11:37:39;0.00;99.90
1686;DHT22;840;47.980;7.830;2022-12-16T11:40:25;-0.10;99.90
1686;DHT22;840;47.980;7.830;2022-12-16T11:43:12;0.00;99.90
1686;DHT22;840;47.980;7.830;2022-12-16T11:46:04;0.10;99.90
1686;DHT22;840;47.980;7.830;2022-12-16T11:48:53;0.10;99.90
1686;DHT22;840;47.980;7.830;2022-12-16T11:51:40;0.10;99.90
1686;DHT22;840;47.980;7.830;2022-12-16T11:54:28;0.20;99.90
1686;DHT22;840;47.980;7.830;2022-12-16T11:57:18;0.30;99.90
1686;DHT22;840;47.980;7.830;2022-12-16T12:00:04;0.40;99.90
1686;DHT22;840;47.980;7.830;2022-12-16T12:02:55;0.40;99.90
1686;DHT22;840;47.980;7.830;2022-12-16T12:05:50;0.20;99.90
1686;DHT22;840;47.980;7.830;2022-12-16T12:08:47;0.30;99.90
1686;DHT22;840;47.980;7.830;2022-12-16T12:11:36;0.20;99.90
1686;DHT22;840;47.980;7.830;2022-12-16T12:14:31;0.10;99.90
1686;DHT22;840;47.980;7.830;2022-12-16T12:17:26;0.10;99.90
1686;DHT22;840;47.980;7.830;2022-12-16T12:20:38;0.20;99.90
1686;DHT22;840;47.980;7.830;2022-12-16T12:23:32;0.40;99.90
1686;DHT22;840;47.980;7.830;2022-12-16T12:26:23;0.50;99.90
1686;DHT22;840;47.980;7.830;2022-12-16T12:29:17;0.60;99.90
1686;DHT22;840;47.980;7.830;2022-12-16T12:32:07;0.60;99.90
1686;DHT22;840;47.980;7.830;2022-12-16T12:35:02;0.50;99.90
1686;DHT22;840;47.980;7.830;2022-12-16T12:37:55;0.50;99.90
1686;DHT22;840;47.980;7.830;2022-12-16T12:40:50;0.50;99.90
1686;DHT22;840;47.980;7.830;2022-12-16T12:43:47;0.30;99.90
1686;DHT22;840;47.980;7.830;2022-12-16T12:46:43;0.10;99.90
1686;DHT22;840;47.980;7.830;2022-12-16T12:49:33;0.10;99.90
1686;DHT22;840;47.980;7.830;2022-12-16T12:52:33;-0.10;99.90
1686;DHT22;840;47.980;7.830;2022-12-16T12:55:25;-0.30;99.90
1686;DHT22;840;47.980;7.830;2022-12-16T12:58:13;-0.30;99.90
1686;DHT22;840;47.980;7.830;2022-12-16T13:01:02;-0.20;99.90
1686;DHT22;840;47.980;7.830;2022-12-16T13:03:50;0.00;99.90
1686;DHT22;840;47.980;7.830;2022-12-16T13:06:41;-0.10;99.90
1686;DHT22;840;47.980;7.830;2022-12-16T13:09:29;-0.10;99.90
1686;DHT22;840;47.980;7.830;2022-12-16T13:12:26;0.10;99.90
1686;DHT22;840;47.980;7.830;2022-12-16T13:18:25;0.30;99.90
1686;DHT22;840;47.980;7.830;2022-12-16T13:21:44;0.40;99.90
1686;DHT22;840;47.980;7.830;2022-12-16T13:24:44;0.40;99.90
1686;DHT22;840;47.980;7.830;2022-12-16T13:27:46;0.40;99.90
1686;DHT22;840;47.980;7.830;2022-12-16T13:30:36;0.30;99.90
1686;DHT22;840;47.980;7.830;2022-12-16T13:33:36;0.30;99.90
1686;DHT22;840;47.980;7.830;2022-12-16T13:36:33;0.20;99.90
1686;DHT22;840;47.980;7.830;2022-12-16T13:39:24;0.10;99.90
1686;DHT22;840;47.980;7.830;2022-12-16T13:45:35;0.00;99.90
1686;DHT22;840;47.980;7.830;2022-12-16T13:48:40;-0.10;99.90
1686;DHT22;840;47.980;7.830;2022-12-16T13:51:58;-0.10;99.90
1686;DHT22;840;47.980;7.830;2022-12-16T13:54:50;0.10;99.90
1686;DHT22;840;47.980;7.830;2022-12-16T13:57:41;0.10;99.90
1686;DHT22;840;47.980;7.830;2022-12-16T14:00:28;0.10;99.90
1686;DHT22;840;47.980;7.830;2022-12-16T14:03:20;0.10;99.90
1686;DHT22;840;47.980;7.830;2022-12-16T14:06:14;0.00;99.90
1686;DHT22;840;47.980;7.830;2022-12-16T14:09:01;0.10;99.90
1686;DHT22;840;47.980;7.830;2022-12-16T14:11:50;0.10;99.90
1686;DHT22;840;47.980;7.830;2022-12-16T14:14:35;0.10;99.90
1686;DHT22;840;47.980;7.830;2022-12-16T14:17:28;0.00;99.90
1686;DHT22;840;47.980;7.830;2022-12-16T14:20:18;0.00;99.90
1686;DHT22;840;47.980;7.830;2022-12-16T14:23:16;-0.10;99.90
1686;DHT22;840;47.980;7.830;2022-12-16T14:26:11;-0.20;99.90
1686;DHT22;840;47.980;7.830;2022-12-16T14:28:56;-0.20;99.90
1686;DHT22;840;47.980;7.830;2022-12-16T14:31:42;-0.20;99.90
1686;DHT22;840;47.980;7.830;2022-12-16T14:34:29;-0.20;99.90
1686;DHT22;840;47.980;7.830;2022-12-16T14:37:15;-0.40;99.90
1686;DHT22;840;47.980;7.830;2022-12-16T14:40:01;-0.40;99.90
1686;DHT22;840;47.980;7.830;2022-12-16T14:42:46;-0.40;99.90
1686;DHT22;840;47.980;7.830;2022-12-16T14:45:34;-0.40;99.90
1686;DHT22;840;47.980;7.830;2022-12-16T14:48:28;-0.40;99.90
1686;DHT22;840;47.980;7.830;2022-12-16T14:51:25;-0.40;99.90
1686;DHT22;840;47.980;7.830;2022-12-16T14:54:20;-0.40;99.90
1686;DHT22;840;47.980;7.830;2022-12-16T14:57:11;-0.30;99.90
1686;DHT22;840;47.980;7.830;2022-12-16T15:00:19;-0.20;99.90
1686;DHT22;840;47.980;7.830;2022-12-16T15:03:10;-0.20;99.90
1686;DHT22;840;47.980;7.830;2022-12-16T15:05:59;-0.20;99.90
1686;DHT22;840;47.980;7.830;2022-12-16T15:08:48;-0.20;99.90
1686;DHT22;840;47.980;7.830;2022-12-16T15:11:36;-0.20;99.90
1686;DHT22;840;47.980;7.830;2022-12-16T15:14:34;-0.20;99.90
1686;DHT22;840;47.980;7.830;2022-12-16T15:17:20;-0.30;99.90
1686;DHT22;840;47.980;7.830;2022-12-16T15:20:14;-0.30;99.90
1686;DHT22;840;47.980;7.830;2022-12-16T15:23:00;-0.30;99.90
1686;DHT22;840;47.980;7.830;2022-12-16T15:25:48;-0.30;99.90
1686;DHT22;840;47.980;7.830;2022-12-16T15:28:39;-0.50;99.90
1686;DHT22;840;47.980;7.830;2022-12-16T15:31:29;-0.50;99.90
1686;DHT22;840;47.980;7.830;2022-12-16T15:34:23;-0.60;99.90
1686;DHT22;840;47.980;7.830;2022-12-16T15:37:29;-0.60;99.90
1686;DHT22;840;47.980;7.830;2022-12-16T15:40:21;-0.60;99.90
1686;DHT22;840;47.980;7.830;2022-12-16T15:43:15;-0.60;99.90
1686;DHT22;840;47.980;7.830;2022-12-16T15:46:03;-0.50;99.90
1686;DHT22;840;47.980;7.830;2022-12-16T15:48:51;-0.50;99.90
1686;DHT22;840;47.980;7.830;2022-12-16T15:51:43;-0.40;99.90
1686;DHT22;840;47.980;7.830;2022-12-16T15:54:29;-0.40;99.90
1686;DHT22;840;47.980;7.830;2022-12-16T15:57:25;-0.40;99.90
1686;DHT22;840;47.980;7.830;2022-12-16T16:00:19;-0.40;99.90
1686;DHT22;840;47.980;7.830;2022-12-16T16:03:04;-0.30;99.90
1686;DHT22;840;47.980;7.830;2022-12-16T16:06:20;-0.30;99.90
1686;DHT22;840;47.980;7.830;2022-12-16T16:09:22;-0.30;99.90
1686;DHT22;840;47.980;7.830;2022-12-16T16:12:08;-0.20;99.90
1686;DHT22;840;47.980;7.830;2022-12-16T16:14:53;-0.20;99.90
1686;DHT22;840;47.980;7.830;2022-12-16T16:17:37;-0.20;99.90
1686;DHT22;840;47.980;7.830;2022-12-16T16:20:24;-0.20;99.90
1686;DHT22;840;47.980;7.830;2022-12-16T16:23:14;-0.20;99.90
1686;DHT22;840;47.980;7.830;2022-12-16T16:26:00;-0.20;99.90
1686;DHT22;840;47.980;7.830;2022-12-16T16:28:46;-0.20;99.90
1686;DHT22;840;47.980;7.830;2022-12-16T16:31:30;-0.30;99.90
1686;DHT22;840;47.980;7.830;2022-12-16T16:34:14;-0.30;99.90
1686;DHT22;840;47.980;7.830;2022-12-16T16:36:59;-0.30;99.90
1686;DHT22;840;47.980;7.830;2022-12-16T16:39:45;-0.30;99.90
1686;DHT22;840;47.980;7.830;2022-12-16T16:42:36;-0.30;99.90
1686;DHT22;840;47.980;7.830;2022-12-16T16:45:21;-0.30;99.90
1686;DHT22;840;47.980;7.830;2022-12-16T16:48:11;-0.30;99.90
1686;DHT22;840;47.980;7.830;2022-12-16T16:50:58;-0.30;99.90
1686;DHT22;840;47.980;7.830;2022-12-16T16:53:42;-0.30;99.90
1686;DHT22;840;47.980;7.830;2022-12-16T16:56:30;-0.30;99.90
1686;DHT22;840;47.980;7.830;2022-12-16T16:59:18;-0.20;99.90
1686;DHT22;840;47.980;7.830;2022-12-16T17:02:14;-0.20;99.90
1686;DHT22;840;47.980;7.830;2022-12-16T17:05:00;-0.10;99.90
1686;DHT22;840;47.980;7.830;2022-12-16T17:07:46;-0.10;99.90
1686;DHT22;840;47.980;7.830;2022-12-16T17:10:30;0.00;99.90
1686;DHT22;840;47.980;7.830;2022-12-16T17:13:17;0.00;99.90
1686;DHT22;840;47.980;7.830;2022-12-16T17:16:04;0.10;99.90
1686;DHT22;840;47.980;7.830;2022-12-16T17:18:49;0.10;99.90
1686;DHT22;840;47.980;7.830;2022-12-16T17:21:33;0.20;99.90
1686;DHT22;840;47.980;7.830;2022-12-16T17:24:18;0.20;99.90
1686;DHT22;840;47.980;7.830;2022-12-16T17:27:11;0.20;99.90
1686;DHT22;840;47.980;7.830;2022-12-16T17:30:00;0.20;99.90
1686;DHT22;840;47.980;7.830;2022-12-16T17:32:47;0.20;99.90
1686;DHT22;840;47.980;7.830;2022-12-16T17:35:32;0.30;99.90
1686;DHT22;840;47.980;7.830;2022-12-16T17:38:17;0.30;99.90
1686;DHT22;840;47.980;7.830;2022-12-16T17:41:04;0.30;99.90
1686;DHT22;840;47.980;7.830;2022-12-16T17:43:52;0.20;99.90
1686;DHT22;840;47.980;7.830;2022-12-16T17:46:38;0.20;99.90
1686;DHT22;840;47.980;7.830;2022-12-16T17:49:24;0.10;99.90
1686;DHT22;840;47.980;7.830;2022-12-16T17:52:10;0.00;99.90
1686;DHT22;840;47.980;7.830;2022-12-16T17:54:55;-0.10;99.90
1686;DHT22;840;47.980;7.830;2022-12-16T17:57:40;-0.10;99.90
1686;DHT22;840;47.980;7.830;2022-12-16T18:00:26;-0.10;99.90
1686;DHT22;840;47.980;7.830;2022-12-16T18:03:18;-0.10;99.90
1686;DHT22;840;47.980;7.830;2022-12-16T18:06:03;-0.20;99.90
1686;DHT22;840;47.980;7.830;2022-12-16T18:08:49;-0.30;99.90
1686;DHT22;840;47.980;7.830;2022-12-16T18:11:34;-0.40;99.90
1686;DHT22;840;47.980;7.830;2022-12-16T18:14:20;-0.40;99.90
1686;DHT22;840;47.980;7.830;2022-12-16T18:17:15;-0.70;99.90
1686;DHT22;840;47.980;7.830;2022-12-16T18:20:03;-0.80;99.90
1686;DHT22;840;47.980;7.830;2022-12-16T18:22:51;-0.90;99.90
1686;DHT22;840;47.980;7.830;2022-12-16T18:25:35;-0.90;99.90
1686;DHT22;840;47.980;7.830;2022-12-16T18:28:26;-0.90;99.90
1686;DHT22;840;47.980;7.830;2022-12-16T18:31:11;-0.90;99.90
1686;DHT22;840;47.980;7.830;2022-12-16T18:33:58;-0.90;99.90
1686;DHT22;840;47.980;7.830;2022-12-16T18:37:03;-0.90;99.90
1686;DHT22;840;47.980;7.830;2022-12-16T18:40:11;-0.80;99.90
1686;DHT22;840;47.980;7.830;2022-12-16T18:42:59;-0.80;99.90
1686;DHT22;840;47.980;7.830;2022-12-16T18:45:51;-0.70;99.90
1686;DHT22;840;47.980;7.830;2022-12-16T18:48:37;-0.80;99.90
1686;DHT22;840;47.980;7.830;2022-12-16T18:51:23;-0.80;99.90